Time;durP1;ratioP1;P1;durP2;ratioP2;P2;SDS_P1;SDS_P2;PMS_P1;PMS_P2;Temp;Humidity;BMP_temperature;BMP_pressure;BME280_temperature;BME280_humidity;BME280_pressure;Samples;Min_cycle;Max_cycle;Signal;HPM_P1;HPM_P2
2023/04/11 00:00:11;;;;;;;14.88;5.32;;;;;;;;;;5013853;28;20048;-71
2023/04/11 00:02:40;;;;;;;8.70;4.00;;;;;;;;;;5010606;28;20049;-71
2023/04/11 00:05:06;;;;;;;9.68;3.65;;;;;;;;;;5029405;28;20242;-71
2023/04/11 00:07:32;;;;;;;4.55;2.70;;;;;;;;;;5035808;28;20079;-71
2023/04/11 00:09:58;;;;;;;13.43;2.60;;;;;;;;;;5032808;28;20078;-71
2023/04/11 00:12:24;;;;;;;7.68;2.40;;;;;;;;;;4996595;28;20044;-71
2023/04/11 00:14:52;;;;;;;8.40;2.20;;;;;;;;;;5027000;28;20067;-71
2023/04/11 00:17:19;;;;;;;10.02;2.67;;;;;;;;;;5032866;28;20044;-71
2023/04/11 00:19:45;;;;;;;3.78;1.17;;;;;;;;;;5030375;28;20044;-70
2023/04/11 00:22:16;;;;;;;5.82;1.65;;;;;;;;;;5029311;28;20114;-70
2023/04/11 00:24:42;;;;;;;5.20;1.45;;;;;;;;;;5027269;28;20701;-71
2023/04/11 00:27:09;;;;;;;4.53;1.23;;;;;;;;;;5030553;28;20044;-71
2023/04/11 00:29:35;;;;;;;5.95;1.85;;;;;;;;;;5028704;28;20212;-71
2023/04/11 00:32:02;;;;;;;5.45;1.65;;;;;;;;;;5012210;28;20058;-70
2023/04/11 00:34:28;;;;;;;10.68;3.30;;;;;;;;;;5012958;28;20036;-70
2023/04/11 00:36:54;;;;;;;3.40;1.23;;;;;;;;;;5029270;28;20703;-71
2023/04/11 00:39:21;;;;;;;3.25;1.17;;;;;;;;;;5029468;28;20051;-70
2023/04/11 00:41:47;;;;;;;4.88;1.40;;;;;;;;;;5027810;28;20051;-70
2023/04/11 00:44:13;;;;;;;6.72;1.67;;;;;;;;;;5030255;28;20374;-71
2023/04/11 00:46:41;;;;;;;6.07;1.70;;;;;;;;;;5010777;28;20135;-71
2023/04/11 00:49:08;;;;;;;9.00;2.17;;;;;;;;;;5010960;28;20045;-71
2023/04/11 00:51:34;;;;;;;5.68;2.00;;;;;;;;;;5029109;28;20037;-71
2023/04/11 00:54:00;;;;;;;11.32;2.22;;;;;;;;;;5010288;28;20036;-71
2023/04/11 00:56:27;;;;;;;9.20;2.00;;;;;;;;;;5006661;28;20052;-71
2023/04/11 00:58:53;;;;;;;8.18;1.77;;;;;;;;;;5029703;28;20507;-71
2023/04/11 01:01:22;;;;;;;9.88;2.85;;;;;;;;;;5030969;28;20044;-71
2023/04/11 01:03:48;;;;;;;11.65;2.53;;;;;;;;;;5009547;28;20548;-71
2023/04/11 01:06:16;;;;;;;12.65;2.33;;;;;;;;;;5030807;28;20044;-72
2023/04/11 01:08:43;;;;;;;8.25;2.03;;;;;;;;;;5012760;28;20458;-72
2023/04/11 01:11:11;;;;;;;11.23;2.67;;;;;;;;;;5031930;28;20056;-72
2023/04/11 01:13:39;;;;;;;7.30;2.03;;;;;;;;;;5014280;28;20476;-72
2023/04/11 01:16:06;;;;;;;14.38;2.45;;;;;;;;;;5034364;28;20044;-72
2023/04/11 01:18:32;;;;;;;13.55;2.72;;;;;;;;;;5023766;28;20431;-72
2023/04/11 01:20:59;;;;;;;18.45;3.22;;;;;;;;;;5035926;28;20044;-72
2023/04/11 01:23:25;;;;;;;10.45;2.40;;;;;;;;;;5014697;28;20079;-72
2023/04/11 01:25:52;;;;;;;11.93;3.17;;;;;;;;;;5034303;28;20540;-72
2023/04/11 01:28:18;;;;;;;16.73;2.90;;;;;;;;;;5013943;28;20033;-72
2023/04/11 01:30:45;;;;;;;18.20;3.40;;;;;;;;;;5031153;28;20037;-72
2023/04/11 01:33:11;;;;;;;17.50;3.03;;;;;;;;;;5033765;28;20632;-72
2023/04/11 01:35:37;;;;;;;7.75;2.25;;;;;;;;;;5037152;28;20044;-72
2023/04/11 01:38:04;;;;;;;13.85;3.40;;;;;;;;;;5013071;28;20166;-72
2023/04/11 01:40:34;;;;;;;13.05;3.25;;;;;;;;;;5032199;28;20044;-72
2023/04/11 01:43:03;;;;;;;17.13;2.80;;;;;;;;;;5018320;28;20170;-72
2023/04/11 01:45:29;;;;;;;22.77;3.17;;;;;;;;;;5015033;28;20650;-72
2023/04/11 01:47:56;;;;;;;28.20;4.55;;;;;;;;;;5029358;28;20397;-72
2023/04/11 01:50:23;;;;;;;16.45;3.35;;;;;;;;;;5013496;28;20070;-72
2023/04/11 01:52:49;;;;;;;12.52;2.47;;;;;;;;;;4996616;28;20065;-72
2023/04/11 01:55:16;;;;;;;16.58;3.47;;;;;;;;;;5013119;28;20107;-72
2023/04/11 01:57:42;;;;;;;23.15;2.92;;;;;;;;;;5032946;28;20045;-72
2023/04/11 02:00:09;;;;;;;17.77;3.53;;;;;;;;;;5032142;28;20051;-72
2023/04/11 02:02:36;;;;;;;14.85;2.83;;;;;;;;;;5013783;28;20075;-72
2023/04/11 02:05:02;;;;;;;14.57;2.83;;;;;;;;;;5030446;28;20056;-72
2023/04/11 02:07:29;;;;;;;23.73;3.65;;;;;;;;;;5034475;28;20088;-72
2023/04/11 02:09:56;;;;;;;16.88;2.97;;;;;;;;;;5033017;28;20456;-72
2023/04/11 02:12:22;;;;;;;18.92;3.85;;;;;;;;;;5033482;28;20045;-72
2023/04/11 02:14:48;;;;;;;12.80;2.90;;;;;;;;;;5013176;28;20669;-73
2023/04/11 02:17:16;;;;;;;17.77;3.38;;;;;;;;;;5018117;28;20040;-72
2023/04/11 02:19:44;;;;;;;19.75;3.63;;;;;;;;;;5033125;28;20037;-72
2023/04/11 02:22:14;;;;;;;18.30;3.15;;;;;;;;;;5010145;28;20511;-72
2023/04/11 02:24:40;;;;;;;10.43;2.03;;;;;;;;;;5009109;28;20735;-71
2023/04/11 02:27:06;;;;;;;13.10;2.50;;;;;;;;;;5020979;28;20652;-72
2023/04/11 02:29:33;;;;;;;13.07;2.40;;;;;;;;;;5021309;28;20492;-72
2023/04/11 02:31:59;;;;;;;10.88;2.45;;;;;;;;;;5004759;28;20430;-72
2023/04/11 02:34:25;;;;;;;6.63;1.80;;;;;;;;;;5023677;28;20776;-72
2023/04/11 02:36:51;;;;;;;14.23;2.13;;;;;;;;;;5013480;28;20113;-72
2023/04/11 02:39:20;;;;;;;17.92;2.28;;;;;;;;;;5010531;28;20060;-72
2023/04/11 02:41:46;;;;;;;13.32;2.22;;;;;;;;;;5014680;28;20053;-73
2023/04/11 02:44:12;;;;;;;19.70;1.55;;;;;;;;;;5011698;28;20132;-72
2023/04/11 02:46:38;;;;;;;9.90;2.25;;;;;;;;;;5030773;28;22492;-73
2023/04/11 02:49:04;;;;;;;8.65;1.90;;;;;;;;;;5031076;28;20040;-72
2023/04/11 02:51:31;;;;;;;6.78;1.33;;;;;;;;;;5010032;28;20103;-72
2023/04/11 02:53:57;;;;;;;9.02;1.60;;;;;;;;;;5031105;28;20045;-72
2023/04/11 02:56:23;;;;;;;9.43;1.98;;;;;;;;;;4996223;28;20274;-71
2023/04/11 02:58:51;;;;;;;8.57;1.83;;;;;;;;;;5014089;28;20507;-70
2023/04/11 03:01:20;;;;;;;4.82;1.17;;;;;;;;;;5012459;28;20040;-71
2023/04/11 03:03:47;;;;;;;8.52;1.63;;;;;;;;;;5029925;28;20570;-71
2023/04/11 03:06:13;;;;;;;7.47;2.03;;;;;;;;;;5031612;28;20056;-71
2023/04/11 03:08:39;;;;;;;6.13;2.00;;;;;;;;;;5030640;28;20051;-71
2023/04/11 03:11:05;;;;;;;6.65;3.00;;;;;;;;;;5017554;28;20642;-71
2023/04/11 03:13:31;;;;;;;8.13;1.75;;;;;;;;;;5009397;28;20063;-71
2023/04/11 03:15:57;;;;;;;8.85;1.58;;;;;;;;;;5010986;28;20544;-71
2023/04/11 03:18:24;;;;;;;5.25;1.50;;;;;;;;;;5015009;28;20814;-72
2023/04/11 03:20:51;;;;;;;8.10;1.98;;;;;;;;;;5009708;28;20508;-71
2023/04/11 03:23:17;;;;;;;8.00;1.73;;;;;;;;;;4994726;28;20056;-72
2023/04/11 03:25:44;;;;;;;10.45;2.40;;;;;;;;;;4992660;28;20091;-72
2023/04/11 03:28:10;;;;;;;11.00;2.40;;;;;;;;;;5009213;28;20056;-71
2023/04/11 03:30:39;;;;;;;11.15;2.65;;;;;;;;;;5027450;28;20048;-71
2023/04/11 03:33:06;;;;;;;7.15;1.92;;;;;;;;;;5025076;28;20472;-71
2023/04/11 03:35:32;;;;;;;12.57;2.95;;;;;;;;;;5013459;28;20479;-72
2023/04/11 03:37:58;;;;;;;13.82;2.72;;;;;;;;;;5012081;28;21026;-71
2023/04/11 03:40:24;;;;;;;9.73;2.80;;;;;;;;;;5010654;28;20045;-70
2023/04/11 03:42:50;;;;;;;13.77;2.97;;;;;;;;;;5031561;28;20052;-71
2023/04/11 03:45:17;;;;;;;7.43;2.10;;;;;;;;;;5005780;28;21880;-71
2023/04/11 03:47:43;;;;;;;8.63;2.90;;;;;;;;;;5029093;28;20056;-71
2023/04/11 03:50:10;;;;;;;9.05;2.65;;;;;;;;;;5011513;28;20045;-71
2023/04/11 03:52:36;;;;;;;8.60;3.17;;;;;;;;;;5009860;28;20492;-71
2023/04/11 03:55:02;;;;;;;12.50;4.20;;;;;;;;;;5011272;28;20055;-71
2023/04/11 03:57:29;;;;;;;8.23;3.05;;;;;;;;;;5013035;28;20053;-71
2023/04/11 03:59:55;;;;;;;8.43;3.10;;;;;;;;;;5014873;28;20466;-71
2023/04/11 04:02:21;;;;;;;10.10;2.92;;;;;;;;;;5013823;28;20159;-71
2023/04/11 04:04:53;;;;;;;9.68;2.83;;;;;;;;;;5017641;28;20045;-71
2023/04/11 04:07:23;;;;;;;9.40;3.28;;;;;;;;;;5034891;28;20056;-71
2023/04/11 04:09:49;;;;;;;18.13;3.85;;;;;;;;;;5014874;28;20076;-71
2023/04/11 04:12:18;;;;;;;15.27;3.13;;;;;;;;;;5015328;28;20622;-71
2023/04/11 04:14:44;;;;;;;7.07;2.58;;;;;;;;;;5032626;28;20041;-71
2023/04/11 04:17:11;;;;;;;11.18;4.20;;;;;;;;;;5014873;28;20033;-71
2023/04/11 04:19:37;;;;;;;9.32;3.15;;;;;;;;;;5013650;28;21102;-71
2023/04/11 04:22:04;;;;;;;13.93;2.70;;;;;;;;;;5032854;28;20056;-71
2023/04/11 04:24:36;;;;;;;9.88;2.80;;;;;;;;;;5031719;28;20037;-71
2023/04/11 04:27:02;;;;;;;9.93;2.65;;;;;;;;;;5031128;28;20044;-71
2023/04/11 04:29:32;;;;;;;10.65;3.47;;;;;;;;;;5013873;28;20055;-71
2023/04/11 04:32:00;;;;;;;11.10;3.60;;;;;;;;;;5011389;28;20057;-71
2023/04/11 04:34:27;;;;;;;11.65;2.88;;;;;;;;;;5011011;28;20586;-71
2023/04/11 04:36:58;;;;;;;15.95;4.07;;;;;;;;;;5028530;28;20062;-72
2023/04/11 04:39:28;;;;;;;16.05;3.65;;;;;;;;;;5010018;28;20049;-72
2023/04/11 04:41:58;;;;;;;12.82;3.42;;;;;;;;;;5015727;28;20602;-72
2023/04/11 04:44:24;;;;;;;12.27;3.30;;;;;;;;;;4998190;28;20055;-70
2023/04/11 04:46:54;;;;;;;19.10;4.18;;;;;;;;;;5031284;28;20048;-70
2023/04/11 04:49:20;;;;;;;18.35;4.18;;;;;;;;;;5013716;28;20051;-70
2023/04/11 04:51:46;;;;;;;19.45;4.80;;;;;;;;;;5030565;28;20476;-71
2023/04/11 04:54:13;;;;;;;16.38;4.10;;;;;;;;;;5035031;28;20399;-71
2023/04/11 04:56:40;;;;;;;16.10;4.18;;;;;;;;;;5029591;28;20496;-70
2023/04/11 04:59:07;;;;;;;13.77;5.15;;;;;;;;;;5017369;28;20318;-71
2023/04/11 05:01:33;;;;;;;16.23;4.28;;;;;;;;;;5016824;28;22610;-71
2023/04/11 05:04:00;;;;;;;22.23;4.28;;;;;;;;;;5017856;28;20459;-71
2023/04/11 05:06:30;;;;;;;21.98;3.92;;;;;;;;;;5033360;28;20957;-70
2023/04/11 05:08:57;;;;;;;12.48;4.15;;;;;;;;;;5017677;28;20579;-71
2023/04/11 05:11:24;;;;;;;10.95;3.75;;;;;;;;;;5035340;28;20041;-70
2023/04/11 05:13:50;;;;;;;13.95;3.42;;;;;;;;;;5017870;28;20079;-71
2023/04/11 05:16:17;;;;;;;19.13;4.55;;;;;;;;;;5035503;28;20067;-71
2023/04/11 05:18:43;;;;;;;11.70;4.03;;;;;;;;;;4997224;28;20049;-71
2023/04/11 05:21:09;;;;;;;14.88;4.53;;;;;;;;;;5009270;28;20106;-71
2023/04/11 05:23:36;;;;;;;17.33;4.28;;;;;;;;;;5033433;28;20665;-71
2023/04/11 05:26:02;;;;;;;13.45;4.00;;;;;;;;;;5014938;28;20041;-70
2023/04/11 05:28:28;;;;;;;12.95;3.85;;;;;;;;;;5033077;28;20040;-70
2023/04/11 05:30:54;;;;;;;10.43;3.95;;;;;;;;;;5032171;28;20063;-70
2023/04/11 05:33:22;;;;;;;16.55;4.15;;;;;;;;;;5001003;28;20060;-71
2023/04/11 05:35:48;;;;;;;14.43;3.75;;;;;;;;;;5032515;28;20127;-71
2023/04/11 05:38:14;;;;;;;17.85;4.10;;;;;;;;;;5033791;28;20045;-71
2023/04/11 05:40:40;;;;;;;19.10;5.32;;;;;;;;;;5032615;28;20117;-71
2023/04/11 05:43:07;;;;;;;12.57;3.95;;;;;;;;;;5029960;28;20128;-71
2023/04/11 05:45:33;;;;;;;11.50;3.50;;;;;;;;;;4995801;28;20149;-71
2023/04/11 05:47:59;;;;;;;13.18;3.53;;;;;;;;;;5032767;28;20087;-71
2023/04/11 05:50:25;;;;;;;8.18;2.72;;;;;;;;;;5034450;28;20071;-70
2023/04/11 05:52:51;;;;;;;6.65;2.20;;;;;;;;;;5033285;28;20036;-70
2023/04/11 05:55:17;;;;;;;11.63;3.00;;;;;;;;;;5030911;28;20571;-70
2023/04/11 05:57:43;;;;;;;10.70;2.83;;;;;;;;;;5014535;28;20472;-70
2023/04/11 06:00:15;;;;;;;12.40;2.80;;;;;;;;;;5001386;28;20055;-70
2023/04/11 06:02:41;;;;;;;8.95;2.83;;;;;;;;;;5020455;28;20048;-70
2023/04/11 06:05:10;;;;;;;9.70;2.47;;;;;;;;;;5019026;28;20044;-69
2023/04/11 06:07:36;;;;;;;7.30;2.70;;;;;;;;;;5039752;28;20908;-69
2023/04/11 06:10:02;;;;;;;9.07;2.95;;;;;;;;;;5039041;28;20140;-69
2023/04/11 06:12:28;;;;;;;10.88;2.97;;;;;;;;;;5035609;28;20045;-69
2023/04/11 06:14:54;;;;;;;9.85;3.25;;;;;;;;;;5023518;28;20159;-68
2023/04/11 06:17:21;;;;;;;6.85;2.10;;;;;;;;;;5040341;28;21015;-68
2023/04/11 06:19:47;;;;;;;7.10;2.72;;;;;;;;;;5037078;28;20045;-68
2023/04/11 06:22:13;;;;;;;6.90;2.60;;;;;;;;;;5036409;28;20047;-68
2023/04/11 06:24:40;;;;;;;3.67;2.30;;;;;;;;;;5040810;28;20044;-68
2023/04/11 06:27:08;;;;;;;9.95;2.25;;;;;;;;;;5039761;28;20476;-68
2023/04/11 06:29:35;;;;;;;3.95;2.10;;;;;;;;;;5039698;28;20083;-68
2023/04/11 06:32:01;;;;;;;9.52;1.85;;;;;;;;;;5029842;28;20052;-69
2023/04/11 06:34:27;;;;;;;6.80;2.13;;;;;;;;;;5002936;28;20456;-69
2023/04/11 06:36:53;;;;;;;6.30;1.65;;;;;;;;;;5039730;28;20051;-69
2023/04/11 06:39:20;;;;;;;5.90;1.52;;;;;;;;;;5037730;28;21804;-69
2023/04/11 06:41:46;;;;;;;6.55;1.80;;;;;;;;;;5039635;28;20127;-69
2023/04/11 06:44:13;;;;;;;9.27;1.65;;;;;;;;;;5039477;28;20131;-70
2023/04/11 06:46:39;;;;;;;8.55;1.95;;;;;;;;;;5038486;28;20083;-70
2023/04/11 06:49:08;;;;;;;10.48;1.60;;;;;;;;;;5019961;28;20463;-69
2023/04/11 06:51:34;;;;;;;16.25;1.42;;;;;;;;;;5034888;28;20472;-69
2023/04/11 06:54:01;;;;;;;5.18;1.23;;;;;;;;;;5038375;28;20181;-70
2023/04/11 06:56:27;;;;;;;13.38;1.30;;;;;;;;;;5020447;28;20118;-69
2023/04/11 06:58:53;;;;;;;8.73;1.17;;;;;;;;;;5039115;28;20045;-69
2023/04/11 07:01:20;;;;;;;7.15;1.38;;;;;;;;;;5038395;28;20041;-70
2023/04/11 07:03:46;;;;;;;10.60;1.30;;;;;;;;;;5039855;28;20045;-70
2023/04/11 07:06:12;;;;;;;13.43;1.38;;;;;;;;;;5039814;28;20048;-69
2023/04/11 07:08:38;;;;;;;5.78;0.88;;;;;;;;;;5021798;28;20159;-69
2023/04/11 07:11:05;;;;;;;4.72;1.10;;;;;;;;;;5038491;28;20061;-70
2023/04/11 07:13:31;;;;;;;3.15;1.05;;;;;;;;;;5039213;28;20079;-69
2023/04/11 07:15:57;;;;;;;11.65;1.25;;;;;;;;;;5036039;28;20055;-70
2023/04/11 07:18:24;;;;;;;10.27;1.13;;;;;;;;;;5021087;28;20126;-69
2023/04/11 07:20:51;;;;;;;18.20;2.65;;;;;;;;;;5018571;28;20091;-69
2023/04/11 07:23:17;;;;;;;12.15;1.60;;;;;;;;;;5018151;28;20057;-68
2023/04/11 07:25:43;;;;;;;2.97;1.20;;;;;;;;;;5011709;28;20049;-69
2023/04/11 07:28:10;;;;;;;10.80;1.25;;;;;;;;;;5020007;28;20048;-70
2023/04/11 07:30:36;;;;;;;11.23;1.70;;;;;;;;;;5039082;28;20477;-70
2023/04/11 07:33:02;;;;;;;7.65;1.90;;;;;;;;;;5038349;28;20447;-70
2023/04/11 07:35:29;;;;;;;9.40;1.45;;;;;;;;;;5019094;28;20097;-70
2023/04/11 07:37:57;;;;;;;16.23;1.35;;;;;;;;;;5022601;28;20461;-70
2023/04/11 07:40:23;;;;;;;9.93;1.77;;;;;;;;;;5021050;28;20520;-70
2023/04/11 07:42:49;;;;;;;10.10;1.70;;;;;;;;;;5038030;28;20044;-71
2023/04/11 07:45:15;;;;;;;9.00;1.45;;;;;;;;;;5037695;28;20053;-71
2023/04/11 07:47:41;;;;;;;9.90;1.73;;;;;;;;;;5036531;28;20498;-71
2023/04/11 07:50:07;;;;;;;12.80;2.88;;;;;;;;;;5036902;28;20076;-70
2023/04/11 07:52:34;;;;;;;7.97;2.05;;;;;;;;;;5033791;28;20454;-70
2023/04/11 07:55:00;;;;;;;11.43;2.95;;;;;;;;;;5017009;28;20991;-71
2023/04/11 07:57:26;;;;;;;16.23;3.45;;;;;;;;;;5037273;28;20044;-71
2023/04/11 07:59:52;;;;;;;17.50;3.42;;;;;;;;;;5018942;28;20056;-71
2023/04/11 08:02:18;;;;;;;15.88;3.15;;;;;;;;;;5017525;28;20506;-72
2023/04/11 08:04:45;;;;;;;17.05;3.60;;;;;;;;;;5036947;28;20101;-71
2023/04/11 08:07:11;;;;;;;27.35;4.70;;;;;;;;;;5036295;28;20048;-71
2023/04/11 08:09:37;;;;;;;27.42;5.57;;;;;;;;;;5022031;28;20045;-72
2023/04/11 08:12:03;;;;;;;19.27;3.10;;;;;;;;;;5017776;28;20499;-71
2023/04/11 08:14:29;;;;;;;27.17;4.45;;;;;;;;;;5019056;28;20487;-72
2023/04/11 08:16:55;;;;;;;18.02;3.72;;;;;;;;;;5035561;28;20535;-72
2023/04/11 08:19:21;;;;;;;14.00;3.85;;;;;;;;;;5017608;28;20048;-72
2023/04/11 08:21:48;;;;;;;17.65;3.58;;;;;;;;;;5018579;28;20051;-72
2023/04/11 08:24:14;;;;;;;11.30;2.63;;;;;;;;;;5019333;28;20053;-71
2023/04/11 08:26:40;;;;;;;14.90;3.15;;;;;;;;;;5020747;28;20477;-72
2023/04/11 08:29:09;;;;;;;13.57;2.55;;;;;;;;;;5014393;28;20044;-71
2023/04/11 08:31:36;;;;;;;16.50;3.70;;;;;;;;;;5036802;28;20044;-72
2023/04/11 08:34:02;;;;;;;13.82;3.03;;;;;;;;;;5032150;28;20538;-72
2023/04/11 08:36:30;;;;;;;12.98;3.08;;;;;;;;;;5003539;28;20048;-72
2023/04/11 08:38:56;;;;;;;14.70;3.03;;;;;;;;;;5016609;28;20068;-72
2023/04/11 08:41:22;;;;;;;17.70;3.45;;;;;;;;;;5014394;28;20036;-72
2023/04/11 08:43:48;;;;;;;12.85;3.58;;;;;;;;;;5034064;28;21443;-73
2023/04/11 08:46:17;;;;;;;8.00;2.47;;;;;;;;;;5015295;28;20113;-73
2023/04/11 08:48:43;;;;;;;11.25;2.28;;;;;;;;;;5018250;28;20049;-72
2023/04/11 08:51:11;;;;;;;15.02;3.28;;;;;;;;;;5017192;28;20041;-72
2023/04/11 08:53:37;;;;;;;14.55;1.90;;;;;;;;;;5013137;28;20051;-71
2023/04/11 08:56:04;;;;;;;7.85;1.70;;;;;;;;;;5010113;28;20049;-71
2023/04/11 08:58:31;;;;;;;9.30;1.60;;;;;;;;;;5012028;28;21788;-71
2023/04/11 09:01:00;;;;;;;6.53;1.60;;;;;;;;;;5012051;28;20471;-71
2023/04/11 09:03:26;;;;;;;10.85;2.85;;;;;;;;;;5013490;28;20036;-71
2023/04/11 09:05:53;;;;;;;12.18;2.90;;;;;;;;;;5011304;28;20128;-72
2023/04/11 09:08:19;;;;;;;12.80;2.97;;;;;;;;;;5015132;28;20052;-72
2023/04/11 09:10:46;;;;;;;14.20;3.30;;;;;;;;;;5013616;28;20128;-72
2023/04/11 09:13:19;;;;;;;11.15;2.40;;;;;;;;;;5015156;28;20053;-72
2023/04/11 09:15:45;;;;;;;13.70;3.17;;;;;;;;;;5016523;28;20057;-72
2023/04/11 09:18:30;;;;;;;14.63;1.88;;;;;;;;;;5013226;28;20132;-70
2023/04/11 09:21:00;;;;;;;6.57;1.60;;;;;;;;;;5014149;28;20138;-70
2023/04/11 09:23:26;;;;;;;7.25;1.58;;;;;;;;;;5013914;28;20045;-70
2023/04/11 09:25:52;;;;;;;10.20;1.98;;;;;;;;;;5015378;28;20657;-70
2023/04/11 09:28:18;;;;;;;7.18;2.72;;;;;;;;;;5000905;28;20063;-70
2023/04/11 09:30:49;;;;;;;16.63;2.25;;;;;;;;;;5014605;28;20115;-70
2023/04/11 09:33:23;;;;;;;11.95;2.75;;;;;;;;;;5012533;28;21102;-70
2023/04/11 09:35:50;;;;;;;12.80;2.90;;;;;;;;;;5017925;28;20059;-70
2023/04/11 09:38:33;;;;;;;17.55;3.70;;;;;;;;;;5019189;28;20072;-71
2023/04/11 09:41:03;;;;;;;14.23;3.10;;;;;;;;;;5020411;28;21738;-70
2023/04/11 09:43:49;;;;;;;19.95;3.33;;;;;;;;;;5016770;28;20599;-71
2023/04/11 09:46:17;;;;;;;11.77;3.70;;;;;;;;;;5033720;28;20191;-70
2023/04/11 09:48:44;;;;;;;20.02;3.53;;;;;;;;;;5020575;28;20049;-69
2023/04/11 09:51:10;;;;;;;19.60;3.45;;;;;;;;;;5036904;28;20132;-70
2023/04/11 09:53:36;;;;;;;15.70;3.67;;;;;;;;;;5037229;28;20181;-70
2023/04/11 09:56:05;;;;;;;14.80;2.72;;;;;;;;;;5020338;28;20648;-70
2023/04/11 09:58:31;;;;;;;13.95;3.40;;;;;;;;;;5035150;28;20560;-70
2023/04/11 10:00:58;;;;;;;9.27;2.90;;;;;;;;;;5036150;28;20718;-69
2023/04/11 10:03:25;;;;;;;15.57;3.05;;;;;;;;;;5022462;28;20674;-70
2023/04/11 10:05:56;;;;;;;13.02;2.50;;;;;;;;;;5021035;28;20512;-70
2023/04/11 10:08:31;;;;;;;7.00;1.50;;;;;;;;;;5041747;28;20084;-70
2023/04/11 10:11:01;;;;;;;11.10;1.90;;;;;;;;;;5041132;28;20076;-70
2023/04/11 10:13:37;;;;;;;8.15;1.70;;;;;;;;;;5039443;28;20072;-70
2023/04/11 10:16:09;;;;;;;10.13;2.20;;;;;;;;;;5040731;28;20060;-71
2023/04/11 10:18:44;;;;;;;11.98;2.70;;;;;;;;;;5031818;28;20072;-70
2023/04/11 10:21:34;;;;;;;15.60;2.85;;;;;;;;;;5039122;28;20045;-69
2023/04/11 10:24:09;;;;;;;29.50;3.60;;;;;;;;;;5039967;28;20122;-68
2023/04/11 10:26:48;;;;;;;19.63;3.85;;;;;;;;;;5040154;28;20195;-68
2023/04/11 10:29:43;;;;;;;24.80;3.63;;;;;;;;;;5022282;28;20572;-68
2023/04/11 10:32:09;;;;;;;15.38;2.70;;;;;;;;;;5011750;28;20632;-69
2023/04/11 10:34:37;;;;;;;15.27;3.00;;;;;;;;;;5021153;28;20036;-69
2023/04/11 10:37:07;;;;;;;14.52;2.80;;;;;;;;;;5038710;28;20293;-69
2023/04/11 10:39:51;;;;;;;17.52;2.72;;;;;;;;;;5036281;28;20132;-69
2023/04/11 10:42:17;;;;;;;;;;;;;;;;;;5039555;28;20475;-69
2023/04/11 10:44:43;;;;;;;12.65;3.60;;;;;;;;;;5038686;28;21620;-69
2023/04/11 10:47:16;;;;;;;14.02;2.40;;;;;;;;;;5038379;28;20089;-71
2023/04/11 10:49:44;;;;;;;11.63;2.78;;;;;;;;;;5041565;28;20041;-69
2023/04/11 10:52:23;;;;;;;10.43;2.30;;;;;;;;;;5039799;28;20558;-71
2023/04/11 10:54:53;;;;;;;14.30;2.83;;;;;;;;;;5040733;28;20165;-72
2023/04/11 10:57:20;;;;;;;19.52;3.22;;;;;;;;;;5027863;28;20158;-72
2023/04/11 10:59:49;;;;;;;17.60;3.58;;;;;;;;;;5021703;28;20200;-70
2023/04/11 11:02:15;;;;;;;10.68;2.53;;;;;;;;;;5018815;28;20120;-70
2023/04/11 11:04:41;;;;;;;14.50;2.58;;;;;;;;;;5037972;28;20054;-70
2023/04/11 11:07:12;;;;;;;13.23;3.22;;;;;;;;;;5019399;28;20075;-70
2023/04/11 11:09:38;;;;;;;18.63;3.10;;;;;;;;;;5040101;28;20075;-69
2023/04/11 11:12:11;;;;;;;17.83;3.42;;;;;;;;;;5038942;28;20044;-69
2023/04/11 11:14:37;;;;;;;20.38;3.38;;;;;;;;;;5039006;28;20036;-69
2023/04/11 11:17:04;;;;;;;18.50;3.83;;;;;;;;;;5038814;28;20049;-69
2023/04/11 11:19:30;;;;;;;9.18;2.28;;;;;;;;;;5040817;28;20091;-70
2023/04/11 11:22:02;;;;;;;15.38;2.95;;;;;;;;;;5021925;28;20131;-69
2023/04/11 11:24:28;;;;;;;11.43;2.80;;;;;;;;;;5006088;28;20074;-69
2023/04/11 11:26:54;;;;;;;7.88;1.83;;;;;;;;;;5021274;28;20442;-70
2023/04/11 11:29:34;;;;;;;4.03;1.30;;;;;;;;;;5020411;28;20040;-70
2023/04/11 11:32:03;;;;;;;7.88;1.67;;;;;;;;;;5019432;28;20044;-70
2023/04/11 11:34:30;;;;;;;3.20;1.17;;;;;;;;;;5021971;28;20384;-70
2023/04/11 11:37:00;;;;;;;9.52;1.90;;;;;;;;;;5020867;28;20626;-70
2023/04/11 11:39:27;;;;;;;7.60;2.13;;;;;;;;;;5038746;28;20083;-71
2023/04/11 11:41:54;;;;;;;15.00;2.20;;;;;;;;;;5036548;28;20571;-71
2023/04/11 11:44:22;;;;;;;11.45;2.20;;;;;;;;;;5038001;28;20052;-71
2023/04/11 11:47:05;;;;;;;13.25;2.90;;;;;;;;;;5036847;28;20053;-71
2023/04/11 11:49:44;;;;;;;11.75;2.53;;;;;;;;;;5033715;28;20047;-72
2023/04/11 11:52:11;;;;;;;10.18;2.33;;;;;;;;;;5034830;28;20117;-71
2023/04/11 11:54:44;;;;;;;11.13;2.15;;;;;;;;;;5017651;28;20185;-71
2023/04/11 11:57:10;;;;;;;12.50;2.45;;;;;;;;;;5018766;28;20057;-72
2023/04/11 11:59:36;;;;;;;10.48;2.13;;;;;;;;;;5034620;28;20076;-72
2023/04/11 12:02:03;;;;;;;17.15;2.38;;;;;;;;;;5035915;28;20048;-73
2023/04/11 12:04:31;;;;;;;13.05;2.83;;;;;;;;;;5019063;28;20139;-72
2023/04/11 12:06:57;;;;;;;12.48;2.53;;;;;;;;;;5014926;28;22350;-72
2023/04/11 12:09:32;;;;;;;12.95;1.85;;;;;;;;;;5001268;28;20123;-73
2023/04/11 12:11:58;;;;;;;10.75;2.05;;;;;;;;;;5035732;28;20040;-72
2023/04/11 12:14:24;;;;;;;11.15;1.75;;;;;;;;;;5003935;28;20686;-72
2023/04/11 12:16:53;;;;;;;7.95;1.70;;;;;;;;;;5028682;28;20129;-72
2023/04/11 12:19:19;;;;;;;20.00;2.50;;;;;;;;;;5002912;28;20058;-72
2023/04/11 12:21:45;;;;;;;7.80;1.65;;;;;;;;;;5020766;28;20190;-72
2023/04/11 12:24:11;;;;;;;13.48;2.00;;;;;;;;;;5039510;28;20102;-72
2023/04/11 12:26:37;;;;;;;10.55;2.13;;;;;;;;;;5038122;28;20038;-72
2023/04/11 12:29:06;;;;;;;12.75;2.25;;;;;;;;;;5020110;28;20040;-73
2023/04/11 12:31:32;;;;;;;11.10;2.22;;;;;;;;;;5007015;28;20493;-72
2023/04/11 12:33:58;;;;;;;7.38;1.58;;;;;;;;;;5040317;28;20478;-73
2023/04/11 12:36:24;;;;;;;15.93;3.47;;;;;;;;;;5004479;28;20102;-73
2023/04/11 12:38:50;;;;;;;9.85;2.10;;;;;;;;;;5019596;28;20045;-72
2023/04/11 12:41:16;;;;;;;13.73;3.35;;;;;;;;;;5018717;28;20141;-73
2023/04/11 12:43:42;;;;;;;14.40;2.50;;;;;;;;;;5016880;28;20401;-73
2023/04/11 12:46:08;;;;;;;19.48;3.65;;;;;;;;;;5033226;28;20401;-71
2023/04/11 12:48:34;;;;;;;17.98;3.05;;;;;;;;;;5017019;28;20032;-71
2023/04/11 12:51:01;;;;;;;13.27;2.83;;;;;;;;;;5038933;28;20033;-71
2023/04/11 12:53:27;;;;;;;15.20;3.08;;;;;;;;;;5018332;28;20127;-71
2023/04/11 12:55:53;;;;;;;18.25;3.47;;;;;;;;;;5018606;28;20052;-71
2023/04/11 12:58:19;;;;;;;14.48;3.17;;;;;;;;;;5036215;28;20085;-72
2023/04/11 13:00:45;;;;;;;15.27;2.42;;;;;;;;;;5016502;28;20499;-72
2023/04/11 13:03:11;;;;;;;13.32;2.58;;;;;;;;;;5016768;28;20496;-72
2023/04/11 13:05:38;;;;;;;13.48;2.58;;;;;;;;;;5026187;28;20055;-72
2023/04/11 13:08:04;;;;;;;9.27;2.30;;;;;;;;;;5016778;28;20668;-72
2023/04/11 13:10:30;;;;;;;15.60;3.10;;;;;;;;;;5037670;28;20044;-72
2023/04/11 13:12:56;;;;;;;13.82;2.30;;;;;;;;;;5001925;28;20479;-72
2023/04/11 13:15:22;;;;;;;21.38;3.72;;;;;;;;;;5037858;28;20389;-73
2023/04/11 13:17:49;;;;;;;22.33;3.35;;;;;;;;;;5001773;28;20044;-72
2023/04/11 13:20:15;;;;;;;14.38;3.80;;;;;;;;;;5019093;28;20077;-72
2023/04/11 13:22:42;;;;;;;16.45;3.13;;;;;;;;;;5019880;28;20040;-72
2023/04/11 13:25:09;;;;;;;18.50;3.10;;;;;;;;;;5024681;28;20169;-72
2023/04/11 13:27:36;;;;;;;10.65;2.00;;;;;;;;;;5022307;28;20037;-72
2023/04/11 13:30:03;;;;;;;14.38;2.83;;;;;;;;;;5007335;28;20049;-73
2023/04/11 13:32:30;;;;;;;18.55;3.03;;;;;;;;;;5038014;28;20055;-73
2023/04/11 13:34:56;;;;;;;10.80;3.55;;;;;;;;;;5024236;28;20124;-73
2023/04/11 13:37:22;;;;;;;10.90;2.42;;;;;;;;;;5037213;28;20049;-73
2023/04/11 13:39:49;;;;;;;14.25;2.47;;;;;;;;;;5004295;28;20041;-73
2023/04/11 13:42:15;;;;;;;10.68;2.33;;;;;;;;;;5018416;28;20074;-72
2023/04/11 13:44:41;;;;;;;10.98;2.80;;;;;;;;;;5036996;28;20057;-73
2023/04/11 13:47:07;;;;;;;9.68;2.75;;;;;;;;;;5020015;28;20083;-73
2023/04/11 13:49:33;;;;;;;9.60;2.50;;;;;;;;;;5016210;28;20041;-72
2023/04/11 13:51:59;;;;;;;13.70;2.65;;;;;;;;;;5036152;28;20040;-73
2023/04/11 13:54:25;;;;;;;11.50;1.90;;;;;;;;;;5037774;28;20044;-73
2023/04/11 13:56:51;;;;;;;21.25;2.50;;;;;;;;;;5037439;28;20051;-73
2023/04/11 13:59:17;;;;;;;11.10;2.10;;;;;;;;;;5020261;28;20415;-74
2023/04/11 14:01:44;;;;;;;16.10;2.47;;;;;;;;;;5018757;28;20041;-73
2023/04/11 14:04:10;;;;;;;9.70;2.67;;;;;;;;;;5019091;28;20500;-73
2023/04/11 14:06:36;;;;;;;16.77;2.30;;;;;;;;;;5020664;28;20113;-74
2023/04/11 14:09:04;;;;;;;11.45;2.20;;;;;;;;;;5003607;28;20424;-73
2023/04/11 14:11:30;;;;;;;12.52;2.45;;;;;;;;;;5036780;28;20507;-73
2023/04/11 14:13:56;;;;;;;7.45;1.83;;;;;;;;;;5036090;28;20071;-73
2023/04/11 14:16:22;;;;;;;9.02;1.48;;;;;;;;;;5018384;28;20049;-73
2023/04/11 14:18:48;;;;;;;8.80;1.48;;;;;;;;;;5036804;28;20057;-73
2023/04/11 14:21:14;;;;;;;6.85;1.48;;;;;;;;;;5026918;28;20994;-73
2023/04/11 14:23:40;;;;;;;6.40;1.40;;;;;;;;;;5024565;28;20102;-74
2023/04/11 14:26:06;;;;;;;16.75;2.33;;;;;;;;;;5041455;28;20040;-74
2023/04/11 14:28:33;;;;;;;8.73;2.10;;;;;;;;;;5007324;28;20052;-73
2023/04/11 14:30:59;;;;;;;9.05;2.22;;;;;;;;;;5007015;28;20043;-73
2023/04/11 14:33:25;;;;;;;8.90;1.73;;;;;;;;;;5043272;28;20120;-73
2023/04/11 14:35:51;;;;;;;10.65;2.30;;;;;;;;;;5016781;28;20106;-74